createdAt,value
2019-04-11T00:01:05.902Z,56.55
2019-04-11T00:03:37.887Z,54.10
2019-04-11T00:06:08.171Z,63.85
2019-04-11T00:08:38.616Z,64.32
2019-04-11T00:11:09.444Z,67.00
2019-04-11T00:13:41.021Z,64.90
2019-04-11T00:16:11.640Z,65.65
2019-04-11T00:18:42.922Z,70.05
2019-04-11T00:21:13.503Z,67.25
2019-04-11T00:23:43.820Z,69.40
2019-04-11T00:26:14.149Z,66.55
2019-04-11T00:28:44.364Z,63.60
2019-04-11T00:31:14.712Z,62.25
2019-04-11T00:33:45.081Z,70.45
2019-04-11T00:36:16.512Z,71.22
2019-04-11T00:38:48.057Z,61.08
2019-04-11T00:41:18.563Z,65.22
2019-04-11T00:43:50.452Z,69.07
2019-04-11T00:46:20.818Z,65.80
2019-04-11T00:48:51.791Z,66.28
2019-04-11T00:51:23.579Z,63.13
2019-04-11T00:53:55.212Z,65.75
2019-04-11T00:56:26.256Z,62.67
2019-04-11T00:58:58.324Z,66.72
2019-04-11T01:01:28.680Z,66.95
2019-04-11T01:03:59.186Z,57.03
2019-04-11T01:06:30.087Z,58.28
2019-04-11T01:09:00.463Z,61.00
2019-04-11T01:11:32.046Z,65.83
2019-04-11T01:14:03.599Z,62.38
2019-04-11T01:16:40.971Z,62.50
2019-04-11T01:19:11.409Z,58.35
2019-04-11T01:21:42.382Z,61.77
2019-04-11T01:24:13.877Z,66.77
2019-04-11T01:26:45.439Z,62.00
2019-04-11T01:29:15.841Z,58.00
2019-04-11T01:31:48.143Z,58.38
2019-04-11T01:34:18.476Z,58.17
2019-04-11T01:36:48.791Z,55.25
2019-04-11T01:39:43.371Z,54.25
2019-04-11T01:42:13.716Z,63.20
2019-04-11T01:44:45.864Z,59.33
2019-04-11T01:47:23.116Z,62.17
2019-04-11T01:49:54.542Z,59.65
2019-04-11T01:52:24.861Z,61.20
2019-04-11T01:54:56.509Z,59.77
2019-04-11T01:57:27.627Z,60.52
2019-04-11T01:59:57.835Z,64.27
2019-04-11T02:02:42.348Z,64.55
2019-04-11T02:05:27.213Z,68.00
2019-04-11T02:07:58.679Z,69.27
2019-04-11T02:10:29.110Z,66.62
2019-04-11T02:12:59.610Z,65.42
2019-04-11T02:15:30.435Z,60.90
2019-04-11T02:18:01.351Z,55.83
2019-04-11T02:20:32.003Z,50.95
2019-04-11T02:23:07.669Z,57.15
2019-04-11T02:25:47.085Z,54.90
2019-04-11T02:28:18.295Z,56.60
2019-04-11T02:30:51.841Z,56.08
2019-04-11T02:33:24.784Z,55.28
2019-04-11T02:35:56.471Z,56.23
2019-04-11T02:38:28.462Z,57.58
2019-04-11T02:40:58.845Z,54.90
2019-04-11T02:43:29.684Z,62.23
2019-04-11T02:46:12.000Z,57.38
2019-04-11T02:48:33.192Z,54.77
2019-04-11T02:51:06.723Z,54.58
2019-04-11T02:53:36.829Z,56.00
2019-04-11T02:56:09.353Z,58.10
2019-04-11T02:58:40.161Z,55.00
2019-04-11T03:01:12.745Z,54.10
2019-04-11T03:03:42.965Z,53.58
2019-04-11T03:06:15.132Z,54.40
2019-04-11T03:08:46.470Z,53.70
2019-04-11T03:11:19.152Z,53.48
2019-04-11T03:13:52.712Z,49.13
2019-04-11T03:16:35.401Z,58.08
2019-04-11T03:19:14.473Z,56.55
2019-04-11T03:21:30.832Z,55.35
2019-04-11T03:24:00.695Z,57.03
2019-04-11T03:26:33.572Z,57.78
2019-04-11T03:29:06.295Z,60.55
2019-04-11T03:32:32.516Z,59.35
2019-04-11T03:35:09.549Z,62.27
2019-04-11T03:39:32.835Z,63.00
2019-04-11T03:42:07.345Z,51.83
2019-04-11T03:44:24.390Z,56.28
2019-04-11T03:47:08.304Z,54.10
2019-04-11T03:49:34.871Z,61.50
2019-04-11T03:51:55.165Z,59.08
2019-04-11T03:54:26.046Z,57.50
2019-04-11T03:56:57.289Z,56.92
2019-04-11T03:59:29.020Z,56.58
2019-04-11T04:02:00.819Z,54.70
2019-04-11T04:04:32.749Z,56.13
2019-04-11T04:07:04.932Z,56.88
2019-04-11T04:09:37.241Z,55.98
2019-04-11T04:12:09.416Z,54.35
2019-04-11T04:15:07.294Z,57.45
2019-04-11T04:18:12.929Z,56.45
2019-04-11T04:21:11.044Z,56.68
2019-04-11T04:23:45.536Z,58.02
2019-04-11T04:26:16.905Z,54.48
2019-04-11T04:28:47.682Z,54.73
2019-04-11T04:31:18.881Z,55.05
2019-04-11T04:33:51.443Z,55.48
2019-04-11T04:36:22.318Z,56.42
2019-04-11T04:38:54.471Z,58.87
2019-04-11T04:41:37.494Z,55.73
2019-04-11T04:44:01.513Z,54.70
2019-04-11T04:46:50.220Z,54.30
2019-04-11T04:49:04.817Z,55.48
2019-04-11T04:51:37.259Z,56.25
2019-04-11T04:54:08.133Z,54.63
2019-04-11T04:56:39.765Z,55.38
2019-04-11T04:59:13.643Z,53.40
2019-04-11T05:01:45.690Z,57.05
2019-04-11T05:04:15.943Z,55.60
2019-04-11T05:06:50.845Z,54.63
2019-04-11T05:09:21.612Z,55.05
2019-04-11T05:11:52.993Z,59.15
2019-04-11T05:14:24.008Z,57.67
2019-04-11T05:16:55.683Z,55.03
2019-04-11T05:19:28.396Z,56.40
2019-04-11T05:21:57.903Z,59.80
2019-04-11T05:24:28.333Z,55.20
2019-04-11T05:26:59.888Z,57.15
2019-04-11T05:29:30.239Z,54.83
2019-04-11T05:32:00.503Z,56.15
2019-04-11T05:34:30.979Z,53.83
2019-04-11T05:37:01.895Z,50.78
2019-04-11T05:39:32.285Z,50.70
2019-04-11T05:42:03.198Z,54.18
2019-04-11T05:44:38.230Z,52.33
2019-04-11T05:47:08.976Z,52.00
2019-04-11T05:49:56.957Z,60.28
2019-04-11T05:52:30.673Z,60.17
2019-04-11T05:55:02.960Z,62.88
2019-04-11T05:57:38.405Z,67.22
2019-04-11T06:00:13.849Z,64.32
2019-04-11T06:05:27.073Z,66.67
2019-04-11T06:07:58.088Z,68.60
2019-04-11T06:10:41.456Z,73.47
2019-04-11T06:13:37.402Z,61.90
2019-04-11T06:16:16.722Z,65.50
2019-04-11T06:19:42.301Z,63.78
2019-04-11T06:22:29.807Z,66.67
2019-04-11T06:25:32.787Z,64.15
2019-04-11T06:28:27.153Z,69.35
2019-04-11T06:31:49.403Z,65.28
2019-04-11T06:34:24.050Z,64.35
2019-04-11T06:37:15.466Z,65.15
2019-04-11T06:39:51.562Z,61.35
2019-04-11T06:42:37.263Z,64.65
2019-04-11T06:45:31.176Z,63.28
2019-04-11T06:48:26.976Z,59.98
2019-04-11T06:51:02.507Z,64.40
2019-04-11T06:53:36.529Z,65.30
2019-04-11T06:56:32.801Z,64.32
2019-04-11T06:59:06.688Z,66.00
2019-04-11T07:01:38.349Z,65.80
2019-04-11T07:04:17.611Z,65.95
2019-04-11T07:06:49.408Z,69.62
2019-04-11T07:09:37.235Z,67.70
2019-04-11T07:12:11.493Z,60.58
2019-04-11T07:14:49.147Z,67.45
2019-04-11T07:17:38.500Z,67.80
2019-04-11T07:20:20.744Z,66.65
2019-04-11T07:23:11.647Z,69.27
2019-04-11T07:25:49.866Z,66.35
2019-04-11T07:28:29.403Z,63.02
2019-04-11T07:31:17.564Z,66.53
2019-04-11T07:34:08.619Z,65.17
2019-04-11T07:36:57.839Z,65.22
2019-04-11T07:39:47.179Z,65.17
2019-04-11T07:42:46.856Z,63.65
2019-04-11T07:45:25.308Z,60.00
2019-04-11T07:48:02.722Z,62.73
2019-04-11T07:50:33.369Z,60.38
2019-04-11T07:53:04.960Z,65.15
2019-04-11T07:55:36.534Z,62.53
2019-04-11T07:58:25.944Z,62.17
2019-04-11T08:01:21.419Z,58.65
2019-04-11T08:04:17.283Z,59.20
2019-04-11T08:06:58.848Z,59.10
2019-04-11T08:09:35.804Z,60.30
2019-04-11T08:12:09.250Z,59.42
2019-04-11T08:15:01.718Z,58.40
2019-04-11T08:17:41.997Z,60.60
2019-04-11T08:20:27.347Z,57.60
2019-04-11T08:23:06.129Z,59.23
2019-04-11T08:25:54.184Z,58.98
2019-04-11T08:28:24.851Z,57.23
2019-04-11T08:31:01.900Z,60.50
2019-04-11T08:33:33.113Z,56.92
2019-04-11T08:36:11.482Z,58.98
2019-04-11T08:38:42.667Z,57.70
2019-04-11T08:41:32.136Z,57.13
2019-04-11T08:44:07.689Z,58.30
2019-04-11T08:46:40.697Z,59.35
2019-04-11T08:49:29.977Z,53.52
2019-04-11T08:52:13.849Z,56.28
2019-04-11T08:55:08.196Z,56.88
2019-04-11T08:57:47.676Z,59.25
2019-04-11T09:00:43.356Z,59.48
2019-04-11T09:04:01.289Z,53.80
2019-04-11T09:06:30.647Z,53.90
2019-04-11T09:09:09.120Z,54.55
2019-04-11T09:11:42.319Z,56.85
2019-04-11T09:14:30.583Z,59.77
2019-04-11T09:17:16.350Z,56.75
2019-04-11T09:20:05.815Z,50.78
2019-04-11T09:22:42.881Z,54.35
2019-04-11T09:25:41.785Z,56.25
2019-04-11T09:28:21.778Z,55.00
2019-04-11T09:31:07.558Z,53.78
2019-04-11T09:33:55.461Z,52.03
2019-04-11T09:36:36.933Z,53.08
2019-04-11T09:39:15.152Z,48.90
2019-04-11T09:42:10.154Z,49.75
2019-04-11T09:44:55.344Z,51.23
2019-04-11T09:47:49.875Z,53.20
2019-04-11T09:50:40.605Z,51.48
2019-04-11T09:53:12.454Z,51.65
2019-04-11T09:55:53.696Z,50.90
2019-04-11T09:58:25.434Z,49.75
2019-04-11T10:01:13.296Z,48.13
2019-04-11T10:03:45.101Z,53.52
2019-04-11T10:06:37.190Z,51.90
2019-04-11T10:09:08.717Z,49.85
2019-04-11T10:12:00.813Z,50.17
2019-04-11T10:14:31.537Z,51.15
2019-04-11T10:17:22.255Z,50.00
2019-04-11T10:19:54.336Z,46.55
2019-04-11T10:22:43.992Z,45.52
2019-04-11T10:25:17.482Z,49.85
2019-04-11T10:28:04.850Z,50.33
2019-04-11T10:30:53.705Z,49.63
2019-04-11T10:33:46.888Z,49.18
2019-04-11T10:36:25.393Z,58.05
2019-04-11T10:39:18.186Z,52.50
2019-04-11T10:41:51.722Z,51.70
2019-04-11T10:44:29.795Z,48.50
2019-04-11T10:47:09.906Z,54.65
2019-04-11T10:49:50.556Z,53.38
2019-04-11T10:52:26.663Z,51.95
2019-04-11T10:55:11.732Z,50.92
2019-04-11T10:58:00.769Z,52.85
2019-04-11T11:00:48.836Z,52.35
2019-04-11T11:03:30.602Z,46.00
2019-04-11T11:06:01.320Z,52.33
2019-04-11T11:08:38.018Z,53.40
2019-04-11T11:11:19.464Z,51.58
2019-04-11T11:14:06.690Z,51.63
2019-04-11T11:16:45.475Z,54.55
2019-04-11T11:19:45.709Z,50.88
2019-04-11T11:22:23.781Z,52.75
2019-04-11T11:25:15.626Z,51.50
2019-04-11T11:27:46.440Z,52.33
2019-04-11T11:30:54.221Z,49.35
2019-04-11T11:33:36.313Z,48.70
2019-04-11T11:36:37.443Z,52.65
2019-04-11T11:39:13.129Z,53.60
2019-04-11T11:42:01.966Z,47.43
2019-04-11T11:44:42.513Z,52.65
2019-04-11T11:47:34.540Z,51.33
2019-04-11T11:50:04.497Z,53.17
2019-04-11T11:53:14.805Z,54.00
2019-04-11T11:55:45.405Z,50.28
2019-04-11T11:58:47.875Z,50.65
2019-04-11T12:01:17.739Z,49.93
2019-04-11T12:04:04.562Z,60.00
2019-04-11T12:06:35.497Z,50.28
2019-04-11T12:09:34.902Z,54.73
2019-04-11T12:12:11.415Z,50.08
2019-04-11T12:15:09.803Z,45.52
2019-04-11T12:18:01.744Z,46.90
2019-04-11T12:20:39.443Z,47.45
2019-04-11T12:23:24.243Z,53.95
2019-04-11T12:25:55.507Z,51.13
2019-04-11T12:28:48.274Z,48.00
2019-04-11T12:31:19.517Z,47.80
2019-04-11T12:34:08.106Z,45.67
2019-04-11T12:36:44.638Z,48.13
2019-04-11T12:41:57.067Z,40.63
2019-04-11T12:44:44.503Z,45.43
2019-04-11T12:47:39.325Z,42.45
2019-04-11T12:50:31.922Z,44.58
2019-04-11T12:53:12.994Z,45.40
2019-04-11T12:56:02.429Z,44.90
2019-04-11T12:58:54.739Z,45.35
2019-04-11T13:02:02.568Z,41.42
2019-04-11T13:04:34.883Z,42.93
2019-04-11T13:07:27.890Z,42.50
2019-04-11T13:10:10.013Z,42.27
2019-04-11T13:13:03.244Z,44.08
2019-04-11T13:15:40.564Z,43.50
2019-04-11T13:18:40.219Z,43.98
2019-04-11T13:21:35.655Z,43.90
2019-04-11T13:24:37.185Z,43.85
2019-04-11T13:27:13.507Z,45.60
2019-04-11T13:30:02.990Z,43.58
2019-04-11T13:32:51.596Z,45.83
2019-04-11T13:35:48.009Z,46.98
2019-04-11T13:38:20.797Z,43.68
2019-04-11T13:41:20.551Z,44.75
2019-04-11T13:44:15.924Z,43.33
2019-04-11T13:47:05.339Z,40.83
2019-04-11T13:49:50.161Z,42.05
2019-04-11T13:52:34.527Z,40.85
2019-04-11T13:55:25.872Z,41.83
2019-04-11T13:58:16.532Z,42.60
2019-04-11T14:00:50.690Z,43.75
2019-04-11T14:03:40.157Z,40.33
2019-04-11T14:06:17.299Z,40.28
2019-04-11T14:09:06.712Z,40.67
2019-04-11T14:11:40.935Z,40.67
2019-04-11T14:14:26.210Z,41.13
2019-04-11T14:17:15.803Z,40.75
2019-04-11T14:20:05.289Z,41.92
2019-04-11T14:23:15.013Z,42.80
2019-04-11T14:26:09.399Z,39.50
2019-04-11T14:28:52.373Z,40.67
2019-04-11T14:31:40.741Z,40.03
2019-04-11T14:34:18.081Z,38.10
2019-04-11T14:37:14.658Z,37.08
2019-04-11T14:39:47.245Z,38.42
2019-04-11T14:42:36.490Z,38.08
2019-04-11T14:45:14.157Z,40.17
2019-04-11T14:48:02.669Z,37.25
2019-04-11T14:50:46.143Z,38.02
2019-04-11T14:53:35.499Z,36.73
2019-04-11T14:56:07.536Z,38.55
2019-04-11T14:59:12.059Z,38.63
2019-04-11T15:01:44.068Z,37.40
2019-04-11T15:04:25.441Z,37.23
2019-04-11T15:06:55.760Z,38.53
2019-04-11T15:09:38.094Z,40.23
2019-04-11T15:12:25.527Z,39.92
2019-04-11T15:18:47.770Z,37.55
2019-04-11T15:21:55.776Z,38.13
2019-04-11T15:24:26.226Z,38.65
2019-04-11T15:27:14.335Z,40.28
2019-04-11T15:29:46.449Z,39.30
2019-04-11T15:32:47.640Z,39.55
2019-04-11T15:35:18.262Z,38.88
2019-04-11T15:38:08.940Z,40.40
2019-04-11T15:40:40.723Z,40.03
2019-04-11T15:43:42.275Z,41.15
2019-04-11T15:46:25.728Z,38.80
2019-04-11T15:49:21.075Z,40.97
2019-04-11T15:51:56.800Z,41.37
2019-04-11T15:54:44.985Z,38.65
2019-04-11T15:57:22.461Z,39.73
2019-04-11T16:00:30.347Z,40.70
2019-04-11T16:03:14.905Z,39.88
2019-04-11T16:06:05.800Z,38.73
2019-04-11T16:08:43.157Z,40.08
2019-04-11T16:11:29.113Z,40.15
2019-04-11T16:14:26.956Z,40.03
2019-04-11T16:17:17.383Z,38.30
2019-04-11T16:19:49.516Z,38.08
2019-04-11T16:22:38.078Z,39.03
2019-04-11T16:25:11.298Z,40.23
2019-04-11T16:28:07.880Z,38.53
2019-04-11T16:30:43.739Z,37.67
2019-04-11T16:33:33.341Z,37.03
2019-04-11T16:36:14.074Z,34.90
2019-04-11T16:38:51.809Z,37.17
2019-04-11T16:41:40.137Z,39.03
2019-04-11T16:44:13.969Z,38.60
2019-04-11T16:47:03.320Z,40.00
2019-04-11T16:49:33.749Z,38.13
2019-04-11T16:52:07.600Z,34.80
2019-04-11T16:54:39.732Z,36.73
2019-04-11T16:57:08.555Z,40.15
2019-04-11T16:59:39.160Z,39.03
2019-04-11T17:02:09.962Z,38.98
2019-04-11T17:04:40.513Z,41.37
2019-04-11T17:07:28.920Z,39.67
2019-04-11T17:09:59.821Z,36.15
2019-04-11T17:12:30.455Z,37.98
2019-04-11T17:15:01.675Z,37.75
2019-04-11T17:17:33.638Z,40.88
2019-04-11T17:20:06.491Z,39.05
2019-04-11T17:22:37.874Z,36.13
2019-04-11T17:25:08.481Z,37.98
2019-04-11T17:27:38.997Z,37.23
2019-04-11T17:30:09.567Z,34.43
2019-04-11T17:32:39.988Z,35.38
2019-04-11T17:35:10.807Z,34.67
2019-04-11T17:37:41.328Z,36.70
2019-04-11T17:40:11.831Z,34.88
2019-04-11T17:42:44.008Z,36.35
2019-04-11T17:45:16.023Z,34.83
2019-04-11T17:47:46.514Z,33.13
2019-04-11T17:50:17.049Z,33.33
2019-04-11T17:52:47.853Z,34.63
2019-04-11T17:55:18.340Z,34.23
2019-04-11T17:57:49.881Z,38.30
2019-04-11T18:00:29.547Z,39.40
2019-04-11T18:02:58.636Z,36.45
2019-04-11T18:05:30.128Z,37.08
2019-04-11T18:08:00.724Z,36.83
2019-04-11T18:10:32.306Z,35.70
2019-04-11T18:13:02.879Z,37.05
2019-04-11T18:15:33.539Z,37.60
2019-04-11T18:18:05.447Z,40.05
2019-04-11T18:20:37.112Z,41.50
2019-04-11T18:23:11.876Z,42.10
2019-04-11T18:25:42.406Z,37.57
2019-04-11T18:28:13.864Z,39.45
2019-04-11T18:30:45.110Z,40.08
2019-04-11T18:33:20.995Z,40.40
2019-04-11T18:35:51.694Z,38.20
2019-04-11T18:38:22.873Z,38.50
2019-04-11T18:40:53.159Z,40.48
2019-04-11T18:43:26.872Z,41.35
2019-04-11T18:45:57.065Z,38.02
2019-04-11T18:48:27.507Z,41.35
2019-04-11T18:50:57.978Z,38.85
2019-04-11T18:53:28.217Z,37.55
2019-04-11T18:56:01.491Z,38.15
2019-04-11T18:58:33.753Z,38.53
2019-04-11T19:01:03.220Z,40.28
2019-04-11T19:03:36.320Z,38.28
2019-04-11T19:06:05.597Z,39.13
2019-04-11T19:08:36.500Z,38.78
2019-04-11T19:11:07.472Z,39.27
2019-04-11T19:13:39.266Z,37.78
2019-04-11T19:16:09.772Z,40.33
2019-04-11T19:18:47.160Z,41.23
2019-04-11T19:21:20.048Z,41.35
2019-04-11T19:23:49.115Z,39.23
2019-04-11T19:26:19.459Z,41.05
2019-04-11T19:28:50.000Z,39.03
2019-04-11T19:31:20.375Z,39.78
2019-04-11T19:33:50.590Z,42.35
2019-04-11T19:36:20.946Z,38.98
2019-04-11T19:38:51.213Z,38.50
2019-04-11T19:41:21.581Z,39.00
2019-04-11T19:43:51.813Z,38.23
2019-04-11T19:46:22.027Z,40.70
2019-04-11T19:48:55.060Z,35.70
2019-04-11T19:51:24.295Z,39.48
2019-04-11T19:53:54.533Z,37.30
2019-04-11T19:56:38.180Z,38.33
2019-04-11T19:59:10.339Z,37.17
2019-04-11T20:01:40.700Z,38.55
2019-04-11T20:04:10.936Z,36.68
2019-04-11T20:06:44.513Z,38.28
2019-04-11T20:09:14.883Z,36.98
2019-04-11T20:11:47.908Z,39.67
2019-04-11T20:14:18.143Z,36.15
2019-04-11T20:16:49.993Z,35.17
2019-04-11T20:19:20.763Z,36.68
2019-04-11T20:21:50.960Z,37.90
2019-04-11T20:24:21.339Z,37.48
2019-04-11T20:26:51.696Z,38.67
2019-04-11T20:29:22.108Z,40.25
2019-04-11T20:31:52.649Z,40.05
2019-04-11T20:34:27.707Z,40.25
2019-04-11T20:36:54.873Z,41.05
2019-04-11T20:39:25.224Z,37.67
2019-04-11T20:41:56.038Z,39.83
2019-04-11T20:44:27.481Z,37.67
2019-04-11T20:47:00.412Z,40.55
2019-04-11T20:49:33.111Z,38.25
2019-04-11T20:52:03.413Z,39.95
2019-04-11T20:54:35.966Z,38.08
2019-04-11T20:57:05.581Z,37.15
2019-04-11T20:59:41.215Z,36.68
2019-04-11T21:02:07.833Z,33.83
2019-04-11T21:04:39.158Z,40.88
2019-04-11T21:07:09.429Z,36.20
2019-04-11T21:09:40.079Z,37.17
2019-04-11T21:12:10.274Z,40.85
2019-04-11T21:14:50.600Z,39.73
2019-04-11T21:17:19.853Z,42.08
2019-04-11T21:19:51.010Z,40.52
2019-04-11T21:22:24.182Z,37.08
2019-04-11T21:24:54.044Z,39.67
2019-04-11T21:27:24.417Z,41.08
2019-04-11T21:29:54.720Z,38.40
2019-04-11T21:32:25.067Z,40.15
2019-04-11T21:34:55.283Z,39.67
2019-04-11T21:37:26.671Z,38.48
2019-04-11T21:39:56.889Z,39.03
2019-04-11T21:42:27.185Z,41.40
2019-04-11T21:44:57.435Z,42.00
2019-04-11T21:47:27.842Z,42.13
2019-04-11T21:49:58.020Z,41.45
2019-04-11T21:52:28.388Z,39.83
2019-04-11T21:54:58.610Z,37.88
2019-04-11T21:57:28.837Z,37.90
2019-04-11T22:00:01.468Z,36.65
2019-04-11T22:02:31.446Z,41.58
2019-04-11T22:05:01.984Z,42.35
2019-04-11T22:07:32.558Z,36.53
2019-04-11T22:10:06.923Z,39.35
2019-04-11T22:12:39.721Z,41.77
2019-04-11T22:15:11.739Z,40.00
2019-04-11T22:17:45.498Z,42.58
2019-04-11T22:20:16.829Z,39.63
2019-04-11T22:22:47.737Z,40.58
2019-04-11T22:25:17.972Z,38.73
2019-04-11T22:27:48.263Z,38.67
2019-04-11T22:30:19.689Z,40.33
2019-04-11T22:32:57.439Z,38.75
2019-04-11T22:35:29.027Z,36.58
2019-04-11T22:38:00.367Z,39.10
2019-04-11T22:40:31.933Z,37.05
2019-04-11T22:43:02.732Z,41.10
2019-04-11T22:45:37.650Z,42.03
2019-04-11T22:48:08.456Z,46.53
2019-04-11T22:50:40.583Z,48.25
2019-04-11T22:53:13.030Z,46.60
2019-04-11T22:55:43.670Z,44.73
2019-04-11T22:58:14.754Z,47.00
2019-04-11T23:00:45.887Z,47.65
2019-04-11T23:03:23.678Z,46.98
2019-04-11T23:05:53.893Z,45.30
2019-04-11T23:08:24.113Z,47.00
2019-04-11T23:10:54.514Z,46.63
2019-04-11T23:13:24.892Z,47.55
2019-04-11T23:15:55.195Z,47.13
2019-04-11T23:18:25.541Z,46.58
2019-04-11T23:20:56.064Z,46.75
2019-04-11T23:23:26.363Z,47.40
2019-04-11T23:25:56.545Z,47.35
2019-04-11T23:28:26.725Z,46.68
2019-04-11T23:30:57.032Z,47.53
2019-04-11T23:33:27.412Z,46.60
2019-04-11T23:35:57.671Z,45.58
2019-04-11T23:38:27.858Z,47.38
2019-04-11T23:40:59.091Z,46.98
2019-04-11T23:43:49.995Z,46.13
2019-04-11T23:46:21.390Z,44.45
2019-04-11T23:48:55.462Z,47.65
2019-04-11T23:51:26.311Z,47.80
2019-04-11T23:53:58.982Z,45.33
2019-04-11T23:56:30.582Z,46.60
2019-04-11T23:59:02.130Z,45.75
